Nearby METAR Reports

 

KELM - Elmira, New York, USA
Distance from station: W 13mi, 20km
Updated: Fri, 18-Aug-2017 3:53am EDT
Mostly cloudy
Mostly cloudy
 Wind from W
Wind: W 6 mph , 9 km/h
Temperature: 75°F , 24°C
Dew Point: 72°F , 22°C
Humidity: 89%
Barometer: 29.78 inHg , 1008.5 hPa
Clouds: Mostly cloudy
Visibility: 8 miles , 13 km
Cloud details: Partly cloudy 2700 ft
Mostly cloudy 3600 ft
Mostly cloudy 5000 ft
2017/08/18 07:53 KELM 180753Z AUTO 27005KT 8SM SCT027 BKN036 BKN050 24/22 A2978 RMK AO2 SLP077 T02440222
KITH - Ithaca/Tompkins, New York, USA
Distance from station: NNE 24mi, 39km
Updated: Fri, 18-Aug-2017 4:35am EDT
Mist, Partly cloudy
Mist, Partly cloudy
 Wind from S
Wind: S 8 mph , 13 km/h
Temperature: 73°F , 23°C
Dew Point: 70°F , 21°C
Humidity: 89%
Barometer: 29.80 inHg , 1009.1 hPa
Summary: Mist
Clouds: Partly cloudy
Visibility: 6 miles , 10 km
Cloud details: Partly cloudy 2500 ft
Partly cloudy 4500 ft
2017/08/18 08:35 KITH 180835Z AUTO 17007KT 6SM BR SCT025 SCT045 23/21 A2980 RMK AO2
KBGM - Binghamton, New York, USA
Distance from station: E 35mi, 56km
Updated: Fri, 18-Aug-2017 4:13am EDT
Mist, Overcast
Mist, Overcast
 Wind from S
Wind: S 8 mph , 13 km/h
Temperature: 70°F , 21°C
Dew Point: 70°F , 21°C
Humidity: 100%
Barometer: 29.84 inHg , 1010.5 hPa
Summary: Mist
Clouds: Overcast
Visibility: 5 miles , 8 km
Cloud details: Mostly cloudy 800 ft
Mostly cloudy 1600 ft
Overcast 7000 ft
2017/08/18 08:13 KBGM 180813Z AUTO 17007KT 5SM BR BKN008 BKN016 OVC070 21/21 A2984 RMK AO2 T02060206
 
KPEO - Penn Yan, New York, USA
Distance from station: NNW 40mi, 64km
Updated: Fri, 18-Aug-2017 3:53am EDT
Mist, Few clouds
Mist, Few clouds
 Wind from SSW
Wind: SSW 7 mph , 11 km/h
Temperature: 73°F , 23°C
Dew Point: 70°F , 21°C
Humidity: 89%
Barometer: 29.78 inHg , 1008.5 hPa
Summary: Mist
Clouds: Few Clouds
Visibility: 6 miles , 10 km
Cloud details: Few Clouds 4500 ft
2017/08/18 07:53 KPEO 180753Z AUTO 21006KT 6SM BR FEW045 23/21 A2978 RMK AO2 RAB0658E17 SLP074 P0001 T02330211
KDSV - Dansville, New York, USA
Distance from station: WNW 61mi, 99km
Updated: Fri, 18-Aug-2017 3:54am EDT
Mist, Clear
Mist, Clear
 Wind from SE
Wind: SE 5 mph , 7 km/h
Temperature: 73°F , 23°C
Dew Point: 72°F , 22°C
Humidity: 94%
Barometer: 29.77 inHg , 1008.1 hPa
Summary: Mist
Clouds: Clear
Visibility: 5 miles , 8 km
2017/08/18 07:54 KDSV 180754Z AUTO 14004KT 5SM BR CLR 23/22 A2977 RMK AO2 SLP083 T02280222
KIPT - Williamsport, Pennsylvania, USA
Distance from station: SSW 64mi, 102km
Updated: Fri, 18-Aug-2017 3:54am EDT
Mostly cloudy
Mostly cloudy
 Wind from calm
Wind: Calm
Temperature: 77°F , 25°C
Dew Point: 73°F , 23°C
Humidity: 89%
Barometer: 29.82 inHg , 1009.8 hPa
Clouds: Mostly cloudy
Visibility: 8 miles , 13 km
Cloud details: Few Clouds 3000 ft
Mostly cloudy 4700 ft
2017/08/18 07:54 KIPT 180754Z AUTO 00000KT 8SM FEW030 BKN047 25/23 A2982 RMK AO2 SLP091 T02500233
 
KELZ - Wellsville, New York, USA
Distance from station: W 68mi, 110km
Updated: Fri, 18-Aug-2017 3:56am EDT
Partly cloudy
Partly cloudy
 Wind from SSW
Wind: SSW 10 mph , 17 km/h
Temperature: 73°F , 23°C
Dew Point: 68°F , 20°C
Humidity: 83%
Barometer: 29.86 inHg , 1011.2 hPa
Clouds: Partly cloudy
Visibility: 10 miles , 16 km
Cloud details: Few Clouds 1800 ft
Partly cloudy 7000 ft
2017/08/18 07:56 KELZ 180756Z AUTO 21009KT 10SM FEW018 SCT070 23/20 A2986 RMK AO2 SLP092 T02280200 $
KSYR - Syracuse, New York, USA
Distance from station: NNE 72mi, 117km
Updated: Fri, 18-Aug-2017 3:54am EDT
Light rain, Mist, Overcast
Light rain, Mist, Overcast
 Wind from S
Wind: S 14 mph , 22 km/h, Gust: 23 mph , 37 km/h
Temperature: 73°F , 23°C
Dew Point: 70°F , 21°C
Humidity: 89%
Barometer: 29.73 inHg , 1006.8 hPa
Summary: Light rain, Mist
Clouds: Overcast
Visibility: 6 miles , 10 km
Cloud details: Few Clouds 3600 ft
Partly cloudy 5000 ft
Overcast 6500 ft
2017/08/18 07:54 KSYR 180754Z 17012G20KT 6SM -RA BR FEW036 SCT050 OVC065 23/21 A2973 RMK AO2 SLP061 P0007 T02330211
KAVP - Avoca/Wilkes B., Pennsylvania, USA
Distance from station: SE 74mi, 120km
Updated: Fri, 18-Aug-2017 4:26am EDT
Rain, Mist, Overcast
Rain, Mist, Overcast
 Wind from varies
Wind: varies 5 mph , 7 km/h
Temperature: 73°F , 23°C
Dew Point: 72°F , 22°C
Humidity: 94%
Barometer: 29.87 inHg , 1011.5 hPa
Summary: Rain, Mist
Clouds: Overcast
Visibility: 2 1/2 miles , 2 km
Cloud details: Partly cloudy 1400 ft
Mostly cloudy 2700 ft
Overcast 3200 ft
2017/08/18 08:26 KAVP 180826Z VRB04KT 2 1/2SM RA BR SCT014 BKN027 OVC032 23/22 A2987 RMK AO2 VIS 1 1/4V5 P0002 T02330222